Orbital elements of COSMOS 2251 DEB
| Launched | 15 June 1993 |
| Flight ended | – |
| Launch site | Plesetsk Missile and Space Complex, Russia |
| Owner | Commonwealth of Independent States (former USSR) |
| NORAD ID | 34619 |
| Date fetched |
Epoch osculation |
Inc. [°] |
Ecc. | RA asc node [hr] |
Arg Peri. [°] |
Mean anom [°] |
Mean motion [rev/day] |
Abs. mag |
| Date fetched |
Epoch osculation |
Inc. [°] |
Ecc. | RA asc node [hr] |
Arg Peri. [°] |
Mean anom [°] |
Mean motion [rev/day] |
Abs. mag |
| 2026 May 05 17:57 | 2026 May 05 09:56:53 | 74.0433 | 0.00933 | 18.9160 | 341.4566 | 18.3208 | 14.65078 | – |
| 2026 May 04 17:57 | 2026 Apr 29 13:00:38 | 74.0429 | 0.00930 | 19.6689 | 354.2576 | 18.3208 | 14.65078 | – |
| 2026 May 03 17:57 | 2026 Apr 29 13:00:38 | 74.0429 | 0.00930 | 19.6689 | 354.2576 | 18.3208 | 14.65078 | – |
| 2026 May 02 17:57 | 2026 Apr 29 13:00:38 | 74.0429 | 0.00930 | 19.6689 | 354.2576 | 18.3208 | 14.65078 | – |
| 2026 May 01 17:56 | 2026 Apr 29 13:00:38 | 74.0429 | 0.00930 | 19.6689 | 354.2576 | 18.3208 | 14.65078 | – |
| 2026 Apr 30 17:56 | 2026 Apr 29 13:00:38 | 74.0429 | 0.00930 | 19.6689 | 354.2576 | 18.3208 | 14.65078 | – |
| 2026 Apr 29 17:57 | 2026 Apr 24 11:44:16 | 74.0432 | 0.00928 | 20.3168 | 5.2810 | 18.3208 | 14.65078 | – |
| 2026 Apr 28 17:56 | 2026 Apr 24 11:44:16 | 74.0432 | 0.00928 | 20.3168 | 5.2810 | 18.3208 | 14.65078 | – |
| 2026 Apr 27 17:58 | 2026 Apr 24 11:44:16 | 74.0432 | 0.00928 | 20.3168 | 5.2810 | 18.3208 | 14.65078 | – |
| 2026 Apr 26 17:58 | 2026 Apr 24 11:44:16 | 74.0432 | 0.00928 | 20.3168 | 5.2810 | 18.3208 | 14.65078 | – |
| 2026 Apr 25 17:58 | 2026 Apr 24 11:44:16 | 74.0432 | 0.00928 | 20.3168 | 5.2810 | 18.3208 | 14.65078 | – |
| 2026 Apr 24 17:59 | 2026 Apr 24 11:44:16 | 74.0432 | 0.00928 | 20.3168 | 5.2810 | 18.3208 | 14.65078 | – |
| 2026 Apr 23 17:57 | 2026 Apr 19 07:11:13 | 74.0437 | 0.00926 | 20.9821 | 16.6171 | 18.3208 | 14.65078 | – |
| 2026 Apr 22 17:57 | 2026 Apr 19 07:11:13 | 74.0437 | 0.00926 | 20.9821 | 16.6171 | 18.3208 | 14.65078 | – |
| 2026 Apr 21 17:57 | 2026 Apr 19 07:11:13 | 74.0437 | 0.00926 | 20.9821 | 16.6171 | 18.3208 | 14.65078 | – |
| 2026 Apr 20 17:57 | 2026 Apr 19 07:11:13 | 74.0437 | 0.00926 | 20.9821 | 16.6171 | 18.3208 | 14.65078 | – |
| 2026 Apr 19 17:58 | 2026 Apr 19 07:11:13 | 74.0437 | 0.00926 | 20.9821 | 16.6171 | 18.3208 | 14.65078 | – |
| 2026 Apr 18 17:56 | 2026 Apr 13 06:58:09 | 74.0452 | 0.00924 | 21.7525 | 29.7612 | 18.3208 | 14.65078 | – |
| 2026 Apr 16 17:57 | 2026 Apr 13 06:58:09 | 74.0452 | 0.00924 | 21.7525 | 29.7612 | 18.3208 | 14.65078 | – |
| 2026 Apr 14 17:57 | 2026 Apr 13 06:58:09 | 74.0452 | 0.00924 | 21.7525 | 29.7612 | 18.3208 | 14.65078 | – |
| 2026 Apr 13 17:57 | 2026 Apr 13 06:58:09 | 74.0452 | 0.00924 | 21.7525 | 29.7612 | 18.3208 | 14.65078 | – |
| 2026 Apr 12 17:57 | 2026 Apr 08 15:31:40 | 74.0447 | 0.00922 | 22.3477 | 39.9590 | 18.3208 | 14.65078 | – |
| 2026 Apr 11 17:57 | 2026 Apr 08 15:31:40 | 74.0447 | 0.00922 | 22.3477 | 39.9590 | 18.3208 | 14.65078 | – |
| 2026 Apr 10 17:58 | 2026 Apr 08 15:31:40 | 74.0447 | 0.00922 | 22.3477 | 39.9590 | 18.3208 | 14.65078 | – |
| 2026 Apr 09 18:01 | 2026 Apr 08 15:31:40 | 74.0447 | 0.00922 | 22.3477 | 39.9590 | 18.3208 | 14.65078 | – |
| 2026 Apr 08 17:57 | 2026 Apr 08 15:31:40 | 74.0447 | 0.00922 | 22.3477 | 39.9590 | 18.3208 | 14.65078 | – |